Delphi Falls, New York
Current Conditions -  °F | °C
As of 8:25 PM on Tuesday 25 Nov 2014 (Local Time) from KSYR Reporting Station
Overcast Overcast  
Wind Chill: 33°   Ceiling: 2700
Heat Index: 41°   Visibility: 10mi
Dew Point: 31°   Wind: 14mph
Humidity: 67%   Direction: 270°W
Pressure: 30.12"   Gusts: 21mph
Location:  42.88°N, 75.91°W
Report Text: KSYR 260125Z 27012G18KT 10SM BKN027 OVC065 05/M01 A3012 RMK AO2 T00501006
Loading
Personal Weather Stations






























Interactive Weather Map New forecast layout! Learn more

10-Day Weather Forecast

Advertisements
Track Severe Weather on mobile